createdAt,value
2022-12-11T00:00:28.698Z,48.60
2022-12-11T00:01:28.639Z,49.16
2022-12-11T00:02:28.697Z,48.06
2022-12-11T00:03:28.685Z,49.53
2022-12-11T00:04:28.657Z,48.12
2022-12-11T00:05:28.642Z,48.99
2022-12-11T00:06:28.592Z,48.04
2022-12-11T00:07:28.594Z,48.01
2022-12-11T00:08:28.650Z,48.01
2022-12-11T00:09:28.655Z,48.02
2022-12-11T00:10:31.083Z,48.05
2022-12-11T00:11:28.601Z,48.44
2022-12-11T00:12:28.588Z,50.53
2022-12-11T00:13:28.616Z,49.22
2022-12-11T00:14:28.599Z,48.17
2022-12-11T00:15:28.619Z,49.16
2022-12-11T00:16:28.602Z,48.06
2022-12-11T00:17:28.559Z,48.08
2022-12-11T00:18:28.553Z,48.01
2022-12-11T00:19:28.569Z,48.84
2022-12-11T00:20:28.539Z,47.97
2022-12-11T00:21:28.633Z,47.90
2022-12-11T00:22:28.511Z,47.92
2022-12-11T00:23:28.544Z,47.91
2022-12-11T00:24:28.534Z,47.95
2022-12-11T00:25:28.516Z,47.84
2022-12-11T00:26:28.502Z,47.70
2022-12-11T00:27:28.519Z,49.51
2022-12-11T00:28:28.491Z,47.78
2022-12-11T00:29:28.493Z,47.92
2022-12-11T00:30:28.489Z,49.16
2022-12-11T00:31:28.550Z,47.95
2022-12-11T00:32:29.134Z,48.07
2022-12-11T00:33:28.502Z,47.95
2022-12-11T00:34:28.470Z,47.94
2022-12-11T00:35:28.443Z,47.90
2022-12-11T00:36:28.498Z,47.93
2022-12-11T00:37:28.499Z,47.92
2022-12-11T00:38:28.429Z,47.89
2022-12-11T00:39:28.427Z,47.85
2022-12-11T00:40:28.414Z,47.88
2022-12-11T00:41:28.451Z,48.47
2022-12-11T00:42:28.445Z,47.93
2022-12-11T00:43:28.410Z,47.97
2022-12-11T00:44:28.396Z,48.02
2022-12-11T00:45:28.407Z,48.02
2022-12-11T00:46:28.403Z,48.00
2022-12-11T00:47:28.455Z,48.23
2022-12-11T00:48:28.412Z,48.14
2022-12-11T00:49:28.392Z,48.01
2022-12-11T00:50:28.359Z,49.45
2022-12-11T00:51:28.396Z,48.07
2022-12-11T00:52:28.387Z,48.01
2022-12-11T00:53:28.357Z,47.96
2022-12-11T00:54:28.338Z,47.93
2022-12-11T00:55:28.333Z,47.84
2022-12-11T00:56:28.315Z,48.92
2022-12-11T00:57:28.348Z,47.94
2022-12-11T00:58:28.335Z,48.27
2022-12-11T00:59:28.364Z,48.26
2022-12-11T01:00:28.310Z,49.63
2022-12-11T01:01:28.339Z,48.07
2022-12-11T01:02:28.328Z,47.90
2022-12-11T01:03:28.292Z,47.92
2022-12-11T01:04:28.302Z,47.90
2022-12-11T01:05:28.292Z,47.89
2022-12-11T01:06:28.315Z,47.87
2022-12-11T01:07:28.283Z,47.86
2022-12-11T01:08:28.306Z,47.84
2022-12-11T01:09:28.264Z,47.93
2022-12-11T01:10:28.321Z,47.97
2022-12-11T01:11:28.228Z,48.01
2022-12-11T01:12:28.257Z,47.96
2022-12-11T01:13:28.282Z,48.72
2022-12-11T01:14:28.246Z,47.79
2022-12-11T01:15:28.257Z,47.75
2022-12-11T01:16:28.248Z,47.81
2022-12-11T01:17:28.209Z,47.85
2022-12-11T01:18:28.209Z,47.84
2022-12-11T01:19:28.224Z,47.73
2022-12-11T01:20:28.203Z,49.24
2022-12-11T01:21:28.185Z,47.90
2022-12-11T01:22:28.167Z,47.95
2022-12-11T01:23:28.157Z,48.97
2022-12-11T01:24:28.165Z,48.31
2022-12-11T01:25:28.178Z,48.13
2022-12-11T01:26:28.180Z,48.08
2022-12-11T01:27:28.150Z,48.05
2022-12-11T01:28:28.135Z,48.09
2022-12-11T01:29:28.134Z,47.98
2022-12-11T01:30:28.176Z,48.97
2022-12-11T01:31:28.162Z,47.91
2022-12-11T01:32:28.113Z,48.17
2022-12-11T01:33:28.132Z,47.89
2022-12-11T01:34:28.115Z,48.17
2022-12-11T01:35:28.120Z,47.87
2022-12-11T01:36:28.128Z,47.59
2022-12-11T01:37:28.098Z,47.67
2022-12-11T01:38:28.097Z,47.73
2022-12-11T01:39:28.075Z,47.80
2022-12-11T01:40:28.072Z,47.83
2022-12-11T01:41:28.117Z,47.99
2022-12-11T01:42:28.082Z,48.08
2022-12-11T01:43:28.092Z,48.16
2022-12-11T01:44:28.051Z,48.19
2022-12-11T01:45:28.184Z,48.27
2022-12-11T01:46:28.132Z,49.74
2022-12-11T01:47:28.057Z,48.42
2022-12-11T01:48:28.072Z,48.33
2022-12-11T01:49:28.058Z,48.26
2022-12-11T01:50:28.032Z,48.25
2022-12-11T01:51:28.006Z,49.53
2022-12-11T01:52:28.021Z,48.49
2022-12-11T01:53:28.044Z,48.53
2022-12-11T01:54:28.022Z,48.15
2022-12-11T01:55:27.991Z,47.94
2022-12-11T01:56:28.006Z,47.77
2022-12-11T01:57:27.980Z,47.73
2022-12-11T01:58:27.959Z,47.90
2022-12-11T01:59:28.016Z,48.10
2022-12-11T02:00:27.971Z,47.95
2022-12-11T02:01:27.983Z,48.19
2022-12-11T02:02:27.984Z,48.04
2022-12-11T02:03:27.959Z,48.08
2022-12-11T02:04:27.972Z,48.11
2022-12-11T02:05:27.945Z,48.12
2022-12-11T02:06:27.935Z,48.11
2022-12-11T02:07:27.924Z,48.09
2022-12-11T02:08:28.028Z,49.13
2022-12-11T02:09:27.951Z,49.70
2022-12-11T02:10:27.897Z,48.23
2022-12-11T02:11:27.904Z,49.99
2022-12-11T02:12:27.890Z,49.33
2022-12-11T02:13:27.883Z,48.40
2022-12-11T02:14:27.936Z,48.17
2022-12-11T02:15:27.930Z,47.81
2022-12-11T02:16:27.962Z,47.92
2022-12-11T02:17:27.901Z,48.35
2022-12-11T02:18:27.883Z,47.95
2022-12-11T02:19:27.887Z,53.17
2022-12-11T02:20:27.858Z,50.08
2022-12-11T02:21:27.882Z,48.46
2022-12-11T02:22:27.863Z,47.82
2022-12-11T02:23:27.830Z,47.81
2022-12-11T02:24:27.833Z,47.93
2022-12-11T02:25:27.869Z,47.95
2022-12-11T02:26:27.838Z,48.00
2022-12-11T02:27:27.835Z,48.02
2022-12-11T02:28:27.860Z,48.18
2022-12-11T02:29:27.830Z,48.06
2022-12-11T02:30:27.828Z,48.38
2022-12-11T02:31:28.860Z,48.00
2022-12-11T02:32:27.795Z,48.68
2022-12-11T02:33:27.822Z,47.89
2022-12-11T02:34:27.797Z,48.01
2022-12-11T02:35:27.789Z,48.04
2022-12-11T02:36:27.774Z,48.46
2022-12-11T02:37:27.785Z,53.24
2022-12-11T02:38:27.774Z,48.01
2022-12-11T02:39:27.771Z,47.93
2022-12-11T02:40:27.746Z,47.88
2022-12-11T02:41:27.759Z,47.81
2022-12-11T02:42:27.760Z,47.76
2022-12-11T02:43:27.764Z,47.75
2022-12-11T02:44:27.789Z,47.77
2022-12-11T02:45:27.761Z,47.68
2022-12-11T02:46:27.718Z,47.76
2022-12-11T02:47:27.714Z,47.82
2022-12-11T02:48:27.711Z,48.82
2022-12-11T02:49:27.742Z,47.86
2022-12-11T02:50:27.710Z,47.79
2022-12-11T02:51:27.679Z,47.87
2022-12-11T02:52:27.675Z,47.80
2022-12-11T02:53:27.679Z,47.92
2022-12-11T02:54:27.688Z,47.91
2022-12-11T02:55:27.644Z,47.86
2022-12-11T02:56:27.650Z,47.88
2022-12-11T02:57:27.661Z,48.00
2022-12-11T02:58:27.641Z,47.94
2022-12-11T02:59:27.666Z,49.39
2022-12-11T03:00:27.632Z,48.36
2022-12-11T03:01:27.702Z,48.34
2022-12-11T03:02:27.655Z,48.16
2022-12-11T03:03:27.621Z,48.03
2022-12-11T03:04:27.606Z,48.04
2022-12-11T03:05:27.584Z,47.92
2022-12-11T03:06:27.628Z,47.97
2022-12-11T03:07:27.582Z,48.00
2022-12-11T03:08:27.671Z,49.09
2022-12-11T03:09:27.577Z,47.87
2022-12-11T03:10:27.608Z,47.90
2022-12-11T03:11:27.632Z,47.88
2022-12-11T03:12:27.580Z,47.89
2022-12-11T03:13:27.564Z,47.88
2022-12-11T03:14:27.567Z,47.82
2022-12-11T03:15:27.540Z,48.06
2022-12-11T03:16:27.612Z,47.87
2022-12-11T03:17:27.556Z,48.27
2022-12-11T03:18:27.529Z,47.67
2022-12-11T03:19:27.512Z,48.00
2022-12-11T03:20:27.534Z,48.18
2022-12-11T03:21:28.548Z,47.21
2022-12-11T03:22:27.499Z,47.34
2022-12-11T03:23:27.511Z,47.41
2022-12-11T03:24:27.485Z,47.64
2022-12-11T03:25:27.492Z,50.12
2022-12-11T03:26:27.514Z,48.68
2022-12-11T03:27:27.480Z,48.30
2022-12-11T03:28:27.492Z,47.80
2022-12-11T03:29:27.490Z,47.91
2022-12-11T03:30:27.508Z,47.96
2022-12-11T03:31:27.492Z,48.02
2022-12-11T03:32:27.486Z,48.11
2022-12-11T03:33:27.441Z,48.23
2022-12-11T03:34:27.448Z,48.12
2022-12-11T03:35:27.435Z,48.11
2022-12-11T03:36:27.463Z,47.97
2022-12-11T03:37:27.431Z,48.00
2022-12-11T03:38:27.453Z,49.71
2022-12-11T03:39:27.404Z,48.06
2022-12-11T03:40:27.425Z,47.94
2022-12-11T03:41:27.411Z,48.02
2022-12-11T03:42:27.398Z,47.94
2022-12-11T03:43:27.450Z,47.99
2022-12-11T03:44:27.391Z,48.07
2022-12-11T03:45:27.380Z,48.09
2022-12-11T03:46:27.432Z,48.00
2022-12-11T03:47:27.371Z,47.88
2022-12-11T03:48:27.381Z,48.21
2022-12-11T03:49:27.413Z,48.70
2022-12-11T03:50:27.373Z,52.59
2022-12-11T03:51:27.349Z,48.15
2022-12-11T03:52:27.355Z,47.65
2022-12-11T03:53:27.368Z,47.78
2022-12-11T03:54:27.320Z,47.83
2022-12-11T03:55:27.326Z,47.74
2022-12-11T03:56:27.341Z,47.76
2022-12-11T03:57:27.435Z,47.75
2022-12-11T03:58:27.318Z,47.82
2022-12-11T03:59:27.317Z,52.14
2022-12-11T04:00:27.313Z,47.98
2022-12-11T04:01:27.337Z,47.94
2022-12-11T04:02:27.301Z,47.93
2022-12-11T04:03:27.275Z,47.89
2022-12-11T04:04:27.281Z,47.80
2022-12-11T04:05:27.266Z,48.00
2022-12-11T04:06:27.245Z,47.93
2022-12-11T04:07:27.261Z,50.10
2022-12-11T04:08:27.305Z,48.78
2022-12-11T04:09:27.238Z,49.70
2022-12-11T04:10:28.264Z,49.13
2022-12-11T04:11:27.237Z,48.04
2022-12-11T04:12:27.227Z,48.07
2022-12-11T04:13:27.222Z,48.05
2022-12-11T04:14:27.216Z,48.21
2022-12-11T04:15:27.257Z,48.98
2022-12-11T04:16:27.222Z,48.42
2022-12-11T04:17:27.222Z,48.89
2022-12-11T04:18:27.192Z,49.71
2022-12-11T04:19:28.238Z,47.92
2022-12-11T04:20:27.180Z,47.84
2022-12-11T04:21:27.188Z,48.96
2022-12-11T04:22:27.176Z,47.70
2022-12-11T04:23:27.172Z,47.75
2022-12-11T04:24:27.152Z,47.83
2022-12-11T04:25:27.169Z,47.86
2022-12-11T04:26:27.152Z,47.78
2022-12-11T04:27:27.179Z,47.80
2022-12-11T04:28:27.175Z,47.82
2022-12-11T04:29:27.139Z,48.46
2022-12-11T04:30:32.453Z,49.15
2022-12-11T04:31:29.173Z,47.93
2022-12-11T04:32:27.137Z,47.80
2022-12-11T04:33:27.163Z,48.98
2022-12-11T04:34:27.120Z,47.75
2022-12-11T04:35:27.139Z,47.71
2022-12-11T04:36:27.123Z,47.72
2022-12-11T04:37:27.109Z,47.69
2022-12-11T04:38:27.100Z,48.06
2022-12-11T04:39:27.142Z,47.71
2022-12-11T04:40:32.864Z,48.20
2022-12-11T04:41:28.065Z,47.82
2022-12-11T04:42:27.061Z,49.20
2022-12-11T04:43:27.059Z,47.74
2022-12-11T04:44:27.170Z,47.87
2022-12-11T04:45:27.074Z,48.57
2022-12-11T04:46:27.085Z,48.63
2022-12-11T04:47:27.094Z,47.81
2022-12-11T04:48:27.027Z,48.59
2022-12-11T04:49:27.060Z,47.70
2022-12-11T04:50:27.026Z,47.69
2022-12-11T04:51:27.031Z,48.05
2022-12-11T04:52:27.004Z,48.47
2022-12-11T04:53:27.023Z,48.50
2022-12-11T04:54:27.054Z,47.72
2022-12-11T04:55:27.007Z,47.74
2022-12-11T04:56:26.987Z,47.97
2022-12-11T04:57:26.982Z,47.78
2022-12-11T04:58:26.988Z,47.82
2022-12-11T04:59:26.998Z,47.76
2022-12-11T05:00:27.026Z,47.86
2022-12-11T05:01:27.039Z,48.39
2022-12-11T05:02:27.037Z,47.77
2022-12-11T05:03:26.937Z,47.79
2022-12-11T05:04:26.942Z,47.79
2022-12-11T05:05:26.946Z,48.05
2022-12-11T05:06:26.989Z,48.01
2022-12-11T05:07:26.926Z,47.82
2022-12-11T05:08:27.005Z,47.72
2022-12-11T05:09:26.904Z,47.80
2022-12-11T05:10:26.903Z,48.05
2022-12-11T05:11:26.940Z,48.32
2022-12-11T05:12:26.899Z,47.97
2022-12-11T05:13:26.885Z,48.33
2022-12-11T05:14:26.911Z,48.89
2022-12-11T05:15:26.888Z,47.82
2022-12-11T05:16:26.944Z,48.26
2022-12-11T05:17:26.868Z,47.76
2022-12-11T05:18:26.895Z,47.69
2022-12-11T05:19:26.882Z,47.49
2022-12-11T05:20:26.913Z,47.45
2022-12-11T05:21:31.676Z,47.40
2022-12-11T05:22:28.834Z,47.57
2022-12-11T05:23:26.851Z,47.98
2022-12-11T05:24:26.828Z,48.24
2022-12-11T05:25:26.837Z,47.77
2022-12-11T05:26:26.855Z,47.80
2022-12-11T05:27:27.864Z,48.40
2022-12-11T05:28:26.829Z,47.95
2022-12-11T05:29:26.795Z,47.96
2022-12-11T05:30:26.830Z,48.30
2022-12-11T05:31:26.854Z,48.04
2022-12-11T05:32:26.808Z,49.12
2022-12-11T05:33:26.921Z,47.99
2022-12-11T05:34:26.798Z,48.91
2022-12-11T05:35:26.754Z,49.05
2022-12-11T05:36:26.760Z,48.23
2022-12-11T05:37:26.794Z,50.20
2022-12-11T05:38:26.751Z,50.48
2022-12-11T05:39:26.741Z,47.94
2022-12-11T05:40:26.767Z,47.81
2022-12-11T05:41:26.743Z,48.41
2022-12-11T05:42:28.985Z,49.06
2022-12-11T05:43:27.742Z,47.79
2022-12-11T05:44:26.738Z,47.86
2022-12-11T05:45:26.721Z,47.96
2022-12-11T05:46:26.823Z,49.85
2022-12-11T05:47:26.709Z,48.61
2022-12-11T05:48:26.767Z,48.64
2022-12-11T05:49:30.840Z,47.84
2022-12-11T05:50:27.682Z,47.76
2022-12-11T05:51:26.667Z,47.73
2022-12-11T05:52:26.669Z,47.93
2022-12-11T05:53:26.725Z,49.88
2022-12-11T05:54:26.671Z,47.80
2022-12-11T05:55:26.686Z,49.41
2022-12-11T05:56:26.644Z,48.73
2022-12-11T05:57:26.657Z,48.62
2022-12-11T05:58:26.651Z,47.80
2022-12-11T05:59:26.676Z,49.62
2022-12-11T06:00:28.466Z,48.61
2022-12-11T06:01:26.639Z,48.66
2022-12-11T06:02:26.653Z,47.85
2022-12-11T06:03:26.608Z,48.55
2022-12-11T06:04:26.631Z,48.19
2022-12-11T06:05:26.631Z,47.87
2022-12-11T06:06:26.576Z,47.80
2022-12-11T06:07:27.608Z,47.82
2022-12-11T06:08:26.609Z,47.86
2022-12-11T06:09:26.573Z,48.00
2022-12-11T06:10:26.573Z,48.97
2022-12-11T06:11:26.549Z,48.51
2022-12-11T06:12:26.598Z,47.90
2022-12-11T06:13:26.529Z,48.59
2022-12-11T06:14:26.597Z,48.25
2022-12-11T06:15:26.583Z,47.87
2022-12-11T06:16:26.622Z,47.79
2022-12-11T06:17:26.540Z,48.88
2022-12-11T06:18:26.550Z,48.05
2022-12-11T06:19:26.513Z,48.11
2022-12-11T06:20:26.529Z,49.90
2022-12-11T06:21:26.531Z,47.88
2022-12-11T06:22:26.504Z,47.83
2022-12-11T06:23:26.505Z,48.49
2022-12-11T06:24:26.496Z,48.44
2022-12-11T06:25:26.474Z,48.72
2022-12-11T06:26:26.487Z,48.20
2022-12-11T06:27:26.503Z,50.01
2022-12-11T06:28:26.466Z,47.91
2022-12-11T06:29:26.488Z,48.71
2022-12-11T06:30:38.997Z,48.13
2022-12-11T06:31:27.528Z,48.03
2022-12-11T06:32:26.469Z,48.08
2022-12-11T06:33:26.432Z,48.34
2022-12-11T06:34:26.423Z,48.04
2022-12-11T06:35:26.443Z,49.39
2022-12-11T06:36:26.418Z,48.11
2022-12-11T06:37:26.436Z,48.63
2022-12-11T06:38:26.418Z,48.02
2022-12-11T06:39:26.389Z,47.89
2022-12-11T06:40:26.423Z,47.84
2022-12-11T06:41:26.379Z,47.87
2022-12-11T06:42:26.408Z,49.31
2022-12-11T06:43:26.386Z,48.71
2022-12-11T06:44:26.372Z,48.01
2022-12-11T06:45:26.403Z,49.34
2022-12-11T06:46:27.376Z,47.77
2022-12-11T06:47:26.417Z,47.89
2022-12-11T06:48:26.339Z,48.08
2022-12-11T06:49:26.367Z,48.19
2022-12-11T06:50:26.381Z,48.12
2022-12-11T06:51:26.334Z,48.45
2022-12-11T06:52:26.328Z,48.11
2022-12-11T06:53:26.336Z,48.54
2022-12-11T06:54:26.363Z,49.34
2022-12-11T06:55:26.316Z,48.47
2022-12-11T06:56:26.316Z,49.09
2022-12-11T06:57:26.294Z,48.75
2022-12-11T06:58:26.389Z,50.81
2022-12-11T06:59:26.286Z,48.16
2022-12-11T07:00:26.320Z,49.76
2022-12-11T07:01:26.338Z,51.71
2022-12-11T07:02:26.330Z,59.15
2022-12-11T07:03:26.265Z,59.34
2022-12-11T07:04:26.268Z,55.46
2022-12-11T07:05:26.264Z,49.80
2022-12-11T07:06:26.234Z,48.83
2022-12-11T07:07:26.286Z,49.72
2022-12-11T07:08:26.276Z,48.64
2022-12-11T07:09:26.225Z,49.20
2022-12-11T07:10:26.220Z,48.09
2022-12-11T07:11:26.229Z,47.88
2022-12-11T07:12:26.200Z,47.52
2022-12-11T07:13:26.224Z,48.79
2022-12-11T07:14:26.242Z,48.36
2022-12-11T07:15:26.188Z,48.53
2022-12-11T07:16:26.244Z,49.61
2022-12-11T07:17:26.169Z,47.74
2022-12-11T07:18:26.212Z,49.62
2022-12-11T07:19:26.160Z,48.79
2022-12-11T07:20:26.171Z,50.07
2022-12-11T07:21:26.138Z,48.96
2022-12-11T07:22:26.231Z,48.27
2022-12-11T07:23:26.149Z,49.32
2022-12-11T07:24:26.144Z,49.37
2022-12-11T07:25:26.124Z,49.77
2022-12-11T07:26:26.170Z,50.63
2022-12-11T07:27:26.161Z,49.85
2022-12-11T07:28:26.160Z,48.39
2022-12-11T07:29:26.092Z,48.54
2022-12-11T07:30:26.111Z,50.88
2022-12-11T07:31:26.181Z,48.45
2022-12-11T07:32:26.295Z,49.30
2022-12-11T07:33:26.144Z,48.74
2022-12-11T07:34:26.087Z,48.40
2022-12-11T07:35:26.086Z,50.19
2022-12-11T07:36:26.067Z,51.19
2022-12-11T07:37:26.057Z,50.88
2022-12-11T07:38:26.081Z,50.41
2022-12-11T07:39:26.060Z,48.97
2022-12-11T07:40:26.041Z,49.95
2022-12-11T07:41:26.092Z,49.42
2022-12-11T07:42:26.025Z,50.79
2022-12-11T07:43:26.064Z,48.57
2022-12-11T07:44:26.047Z,50.99
2022-12-11T07:45:26.043Z,49.64
2022-12-11T07:46:26.050Z,50.31
2022-12-11T07:47:26.005Z,49.04
2022-12-11T07:48:26.025Z,49.41
2022-12-11T07:49:26.022Z,49.46
2022-12-11T07:50:25.989Z,49.70
2022-12-11T07:51:26.012Z,49.47
2022-12-11T07:52:25.990Z,50.04
2022-12-11T07:53:25.998Z,50.01
2022-12-11T07:54:26.014Z,49.68
2022-12-11T07:55:25.979Z,49.72
2022-12-11T07:56:25.947Z,52.02
2022-12-11T07:57:25.962Z,50.93
2022-12-11T07:58:25.931Z,49.30
2022-12-11T07:59:26.027Z,51.24
2022-12-11T08:00:25.975Z,52.21
2022-12-11T08:01:26.052Z,53.43
2022-12-11T08:02:25.942Z,53.68
2022-12-11T08:03:25.940Z,49.33
2022-12-11T08:04:25.953Z,51.39
2022-12-11T08:05:25.944Z,50.90
2022-12-11T08:06:25.923Z,49.27
2022-12-11T08:07:25.914Z,50.85
2022-12-11T08:08:25.934Z,49.37
2022-12-11T08:09:25.903Z,49.34
2022-12-11T08:10:25.963Z,49.84
2022-12-11T08:11:25.855Z,50.75
2022-12-11T08:12:25.859Z,50.48
2022-12-11T08:13:25.853Z,49.69
2022-12-11T08:14:25.858Z,50.37
2022-12-11T08:15:25.862Z,49.76
2022-12-11T08:16:25.922Z,53.94
2022-12-11T08:17:29.605Z,48.38
2022-12-11T08:18:27.821Z,52.73
2022-12-11T08:19:25.822Z,50.53
2022-12-11T08:20:25.836Z,48.96
2022-12-11T08:21:25.800Z,49.10
2022-12-11T08:22:25.850Z,49.58
2022-12-11T08:23:25.831Z,52.40
2022-12-11T08:24:25.803Z,52.58
2022-12-11T08:25:25.809Z,52.58
2022-12-11T08:26:25.820Z,50.47
2022-12-11T08:27:25.781Z,50.62
2022-12-11T08:28:27.293Z,51.47
2022-12-11T08:29:25.749Z,51.46
2022-12-11T08:30:25.780Z,52.98
2022-12-11T08:31:25.767Z,52.10
2022-12-11T08:32:25.775Z,51.36
2022-12-11T08:33:25.751Z,51.47
2022-12-11T08:34:25.737Z,52.65
2022-12-11T08:35:25.718Z,52.41
2022-12-11T08:36:25.733Z,51.71
2022-12-11T08:37:25.699Z,50.19
2022-12-11T08:38:25.864Z,52.72
2022-12-11T08:39:25.733Z,49.81
2022-12-11T08:40:25.699Z,50.52
2022-12-11T08:41:25.684Z,49.08
2022-12-11T08:42:25.693Z,49.88
2022-12-11T08:43:25.666Z,52.74
2022-12-11T08:44:25.707Z,50.68
2022-12-11T08:45:25.673Z,52.48
2022-12-11T08:46:25.761Z,50.20
2022-12-11T08:47:25.770Z,52.83
2022-12-11T08:48:25.668Z,53.37
2022-12-11T08:49:27.604Z,49.97
2022-12-11T08:50:26.632Z,50.40
2022-12-11T08:51:25.632Z,49.60
2022-12-11T08:52:25.644Z,50.47
2022-12-11T08:53:25.627Z,49.27
2022-12-11T08:54:25.668Z,50.40
2022-12-11T08:55:25.650Z,49.86
2022-12-11T08:56:25.636Z,51.92
2022-12-11T08:57:25.619Z,49.40
2022-12-11T08:58:25.590Z,50.89
2022-12-11T08:59:25.654Z,49.82
2022-12-11T09:00:25.646Z,50.14
2022-12-11T09:01:25.665Z,48.60
2022-12-11T09:02:25.627Z,50.65
2022-12-11T09:03:25.571Z,52.41
2022-12-11T09:04:25.593Z,49.59
2022-12-11T09:05:25.593Z,50.61
2022-12-11T09:06:25.593Z,49.51
2022-12-11T09:07:25.559Z,49.79
2022-12-11T09:08:25.610Z,53.85
2022-12-11T09:09:25.565Z,50.95
2022-12-11T09:10:25.589Z,51.41
2022-12-11T09:11:25.513Z,49.97
2022-12-11T09:12:25.537Z,50.09
2022-12-11T09:13:25.499Z,51.67
2022-12-11T09:14:25.541Z,49.32
2022-12-11T09:15:25.525Z,49.45
2022-12-11T09:16:25.509Z,50.43
2022-12-11T09:17:25.532Z,51.38
2022-12-11T09:18:25.494Z,51.22
2022-12-11T09:19:30.666Z,49.29
2022-12-11T09:20:27.468Z,52.36
2022-12-11T09:21:25.470Z,50.52
2022-12-11T09:22:25.491Z,50.55
2022-12-11T09:23:25.467Z,50.21
2022-12-11T09:24:25.490Z,53.48
2022-12-11T09:25:25.439Z,51.46
2022-12-11T09:26:25.430Z,49.67
2022-12-11T09:27:25.435Z,52.19
2022-12-11T09:28:25.447Z,51.68
2022-12-11T09:29:25.399Z,49.46
2022-12-11T09:30:25.430Z,51.73
2022-12-11T09:31:25.392Z,50.59
2022-12-11T09:32:25.403Z,50.29
2022-12-11T09:33:25.408Z,51.85
2022-12-11T09:34:29.126Z,50.35
2022-12-11T09:35:26.407Z,50.37
2022-12-11T09:36:25.362Z,53.05
2022-12-11T09:37:25.355Z,49.67
2022-12-11T09:38:25.342Z,50.76
2022-12-11T09:39:25.392Z,49.61
2022-12-11T09:40:25.343Z,50.49
2022-12-11T09:41:25.339Z,50.61
2022-12-11T09:42:25.315Z,50.93
2022-12-11T09:43:25.328Z,51.00
2022-12-11T09:44:25.375Z,50.69
2022-12-11T09:45:25.320Z,50.02
2022-12-11T09:46:26.875Z,47.50
2022-12-11T09:47:25.375Z,49.95
2022-12-11T09:48:25.303Z,50.03
2022-12-11T09:49:25.313Z,49.65
2022-12-11T09:50:25.415Z,53.83
2022-12-11T09:51:25.337Z,50.27
2022-12-11T09:52:25.714Z,52.23
2022-12-11T09:53:27.025Z,50.05
2022-12-11T09:54:26.588Z,50.69
2022-12-11T09:55:25.348Z,53.78
2022-12-11T09:56:25.313Z,51.57
2022-12-11T09:57:25.254Z,50.67
2022-12-11T09:58:25.413Z,49.49
2022-12-11T09:59:25.287Z,52.97
2022-12-11T10:00:25.313Z,52.78
2022-12-11T10:01:25.310Z,55.83
2022-12-11T10:02:25.351Z,59.38
2022-12-11T10:03:25.278Z,58.53
2022-12-11T10:04:25.309Z,56.57
2022-12-11T10:05:25.232Z,52.54
2022-12-11T10:06:25.180Z,52.21
2022-12-11T10:07:25.299Z,49.97
2022-12-11T10:08:25.222Z,50.58
2022-12-11T10:09:25.161Z,51.24
2022-12-11T10:10:25.201Z,52.82
2022-12-11T10:11:25.202Z,51.38
2022-12-11T10:12:25.228Z,50.08
2022-12-11T10:13:25.236Z,51.95
2022-12-11T10:14:25.157Z,52.62
2022-12-11T10:15:25.174Z,50.32
2022-12-11T10:16:25.156Z,52.79
2022-12-11T10:17:25.185Z,53.15
2022-12-11T10:18:25.123Z,53.31
2022-12-11T10:19:25.112Z,51.39
2022-12-11T10:20:25.107Z,51.57
2022-12-11T10:21:25.136Z,51.50
2022-12-11T10:22:25.098Z,50.75
2022-12-11T10:23:25.103Z,50.99
2022-12-11T10:24:57.926Z,50.67
2022-12-11T10:25:26.352Z,51.02
2022-12-11T10:26:25.081Z,52.30
2022-12-11T10:27:25.086Z,53.28
2022-12-11T10:28:25.077Z,50.91
2022-12-11T10:29:25.065Z,50.22
2022-12-11T10:30:25.052Z,50.79
2022-12-11T10:31:25.159Z,50.30
2022-12-11T10:32:25.070Z,51.30
2022-12-11T10:33:25.075Z,55.20
2022-12-11T10:34:25.027Z,52.94
2022-12-11T10:35:25.023Z,52.64
2022-12-11T10:36:25.030Z,52.68
2022-12-11T10:37:25.015Z,51.86
2022-12-11T10:38:25.046Z,52.38
2022-12-11T10:39:25.025Z,50.64
2022-12-11T10:40:25.031Z,51.00
2022-12-11T10:41:24.993Z,52.79
2022-12-11T10:42:24.980Z,49.70
2022-12-11T10:43:24.977Z,50.32
2022-12-11T10:44:25.046Z,51.03
2022-12-11T10:45:24.952Z,51.02
2022-12-11T10:46:24.994Z,51.60
2022-12-11T10:47:25.004Z,51.20
2022-12-11T10:48:24.957Z,52.75
2022-12-11T10:49:24.974Z,52.98
2022-12-11T10:50:24.961Z,49.47
2022-12-11T10:51:24.947Z,51.45
2022-12-11T10:52:24.927Z,52.31
2022-12-11T10:53:24.922Z,52.76
2022-12-11T10:54:24.907Z,50.30
2022-12-11T10:55:24.932Z,51.87
2022-12-11T10:56:24.898Z,53.09
2022-12-11T10:57:24.892Z,52.31
2022-12-11T10:58:24.944Z,49.95
2022-12-11T10:59:24.881Z,51.80
2022-12-11T11:00:24.907Z,53.27
2022-12-11T11:01:24.948Z,51.72
2022-12-11T11:02:24.904Z,52.17
2022-12-11T11:03:24.961Z,51.25
2022-12-11T11:04:24.855Z,53.32
2022-12-11T11:05:24.883Z,50.09
2022-12-11T11:06:24.868Z,54.31
2022-12-11T11:07:24.860Z,53.31
2022-12-11T11:08:24.887Z,53.58
2022-12-11T11:09:24.829Z,52.79
2022-12-11T11:10:24.893Z,51.03
2022-12-11T11:11:24.822Z,51.53
2022-12-11T11:12:24.810Z,51.26
2022-12-11T11:13:24.840Z,50.93
2022-12-11T11:14:24.902Z,50.42
2022-12-11T11:15:24.808Z,52.38
2022-12-11T11:16:24.852Z,50.77
2022-12-11T11:17:24.782Z,52.21
2022-12-11T11:18:24.770Z,55.09
2022-12-11T11:19:24.765Z,51.69
2022-12-11T11:20:24.782Z,50.00
2022-12-11T11:21:24.756Z,53.00
2022-12-11T11:22:24.751Z,53.88
2022-12-11T11:23:24.744Z,52.48
2022-12-11T11:24:24.734Z,53.99
2022-12-11T11:25:24.791Z,52.69
2022-12-11T11:26:30.764Z,49.67
2022-12-11T11:27:25.730Z,52.66
2022-12-11T11:28:24.733Z,50.89
2022-12-11T11:29:24.721Z,54.18
2022-12-11T11:30:24.742Z,49.35
2022-12-11T11:31:24.858Z,49.26
2022-12-11T11:32:24.693Z,51.09
2022-12-11T11:33:24.709Z,52.95
2022-12-11T11:34:24.680Z,48.09
2022-12-11T11:35:24.690Z,52.41
2022-12-11T11:36:24.677Z,49.28
2022-12-11T11:37:24.677Z,49.87
2022-12-11T11:38:24.709Z,50.08
2022-12-11T11:39:24.668Z,50.33
2022-12-11T11:40:24.658Z,51.24
2022-12-11T11:41:24.644Z,49.95
2022-12-11T11:42:24.677Z,52.01
2022-12-11T11:43:24.644Z,51.75
2022-12-11T11:44:24.647Z,52.52
2022-12-11T11:45:24.634Z,52.22
2022-12-11T11:46:24.707Z,49.10
2022-12-11T11:47:24.617Z,49.41
2022-12-11T11:48:24.609Z,52.71
2022-12-11T11:49:24.623Z,51.03
2022-12-11T11:50:24.616Z,49.36
2022-12-11T11:51:24.591Z,51.66
2022-12-11T11:52:24.689Z,50.37
2022-12-11T11:53:24.561Z,51.43
2022-12-11T11:54:24.625Z,51.16
2022-12-11T11:55:24.580Z,51.37
2022-12-11T11:56:24.573Z,48.30
2022-12-11T11:57:24.557Z,49.43
2022-12-11T11:58:24.556Z,50.15
2022-12-11T11:59:24.534Z,49.98
2022-12-11T12:00:27.567Z,51.16
2022-12-11T12:01:25.527Z,50.47
2022-12-11T12:02:24.549Z,50.56
2022-12-11T12:03:24.516Z,48.77
2022-12-11T12:04:24.525Z,49.66
2022-12-11T12:05:24.520Z,49.96
2022-12-11T12:06:24.510Z,50.97
2022-12-11T12:07:24.513Z,49.39
2022-12-11T12:08:24.531Z,50.24
2022-12-11T12:09:24.544Z,49.14
2022-12-11T12:10:24.514Z,53.20
2022-12-11T12:11:24.472Z,50.97
2022-12-11T12:12:28.559Z,51.17
2022-12-11T12:13:48.571Z,49.45
2022-12-11T12:14:51.811Z,50.50
2022-12-11T12:15:26.438Z,50.35
2022-12-11T12:16:51.606Z,51.71
2022-12-11T12:17:26.510Z,50.72
2022-12-11T12:18:24.464Z,49.95
2022-12-11T12:19:24.423Z,48.02
2022-12-11T12:20:24.413Z,48.49
2022-12-11T12:21:24.406Z,48.80
2022-12-11T12:22:24.429Z,53.95
2022-12-11T12:23:24.424Z,50.40
2022-12-11T12:24:24.384Z,51.71
2022-12-11T12:25:24.396Z,50.53
2022-12-11T12:26:24.410Z,53.47
2022-12-11T12:27:51.180Z,51.59
2022-12-11T12:28:26.385Z,52.69
2022-12-11T12:29:24.354Z,53.76
2022-12-11T12:30:24.432Z,52.28
2022-12-11T12:31:24.465Z,50.70
2022-12-11T12:32:24.364Z,52.11
2022-12-11T12:33:24.375Z,49.60
2022-12-11T12:34:24.323Z,53.11
2022-12-11T12:35:24.323Z,50.73
2022-12-11T12:36:24.331Z,49.91
2022-12-11T12:37:24.307Z,52.41
2022-12-11T12:38:24.309Z,54.55
2022-12-11T12:39:24.328Z,52.45
2022-12-11T12:40:24.329Z,51.51
2022-12-11T12:41:24.498Z,49.77
2022-12-11T12:42:24.297Z,50.84
2022-12-11T12:43:24.282Z,52.17
2022-12-11T12:44:24.369Z,49.96
2022-12-11T12:45:24.326Z,52.31
2022-12-11T12:46:24.340Z,50.01
2022-12-11T12:47:24.257Z,52.02
2022-12-11T12:48:24.253Z,52.34
2022-12-11T12:49:24.275Z,51.21
2022-12-11T12:50:24.223Z,52.37
2022-12-11T12:51:24.243Z,53.01
2022-12-11T12:52:24.213Z,52.03